sensor_id;sensor_type;location;lat;lon;timestamp;P1;durP1;ratioP1;P2;durP2;ratioP2
83282;SDS011;73190;50.780;5.658;2024-03-06T00:01:10;12.35;;;8.23;;
83282;SDS011;73190;50.780;5.658;2024-03-06T00:03:38;23.00;;;16.73;;
83282;SDS011;73190;50.780;5.658;2024-03-06T00:06:05;34.20;;;22.40;;
83282;SDS011;73190;50.780;5.658;2024-03-06T00:08:33;30.43;;;19.90;;
83282;SDS011;73190;50.780;5.658;2024-03-06T00:11:02;54.73;;;32.15;;
83282;SDS011;73190;50.780;5.658;2024-03-06T00:13:30;50.48;;;30.95;;
83282;SDS011;73190;50.780;5.658;2024-03-06T00:15:58;60.55;;;35.38;;
83282;SDS011;73190;50.780;5.658;2024-03-06T00:18:25;48.45;;;29.20;;
83282;SDS011;73190;50.780;5.658;2024-03-06T00:20:53;26.93;;;17.42;;
83282;SDS011;73190;50.780;5.658;2024-03-06T00:23:20;16.25;;;9.00;;
83282;SDS011;73190;50.780;5.658;2024-03-06T00:25:48;12.82;;;7.65;;
83282;SDS011;73190;50.780;5.658;2024-03-06T00:28:15;13.70;;;8.95;;
83282;SDS011;73190;50.780;5.658;2024-03-06T00:30:43;16.93;;;9.70;;
83282;SDS011;73190;50.780;5.658;2024-03-06T00:33:10;15.53;;;9.20;;
83282;SDS011;73190;50.780;5.658;2024-03-06T00:35:38;15.83;;;9.20;;
83282;SDS011;73190;50.780;5.658;2024-03-06T00:38:05;13.93;;;8.45;;
83282;SDS011;73190;50.780;5.658;2024-03-06T00:40:33;11.35;;;7.60;;
83282;SDS011;73190;50.780;5.658;2024-03-06T00:43:00;9.65;;;5.10;;
83282;SDS011;73190;50.780;5.658;2024-03-06T00:45:28;9.18;;;5.58;;
83282;SDS011;73190;50.780;5.658;2024-03-06T00:47:55;7.20;;;5.20;;
83282;SDS011;73190;50.780;5.658;2024-03-06T00:50:23;8.70;;;4.45;;
83282;SDS011;73190;50.780;5.658;2024-03-06T00:52:51;5.15;;;3.98;;
83282;SDS011;73190;50.780;5.658;2024-03-06T00:55:18;5.20;;;3.40;;
83282;SDS011;73190;50.780;5.658;2024-03-06T00:57:46;4.10;;;3.30;;
83282;SDS011;73190;50.780;5.658;2024-03-06T01:00:13;6.05;;;3.80;;
83282;SDS011;73190;50.780;5.658;2024-03-06T01:02:41;5.22;;;3.92;;
83282;SDS011;73190;50.780;5.658;2024-03-06T01:05:09;8.63;;;6.10;;
83282;SDS011;73190;50.780;5.658;2024-03-06T01:07:40;8.18;;;5.53;;
83282;SDS011;73190;50.780;5.658;2024-03-06T01:10:08;7.42;;;4.45;;
83282;SDS011;73190;50.780;5.658;2024-03-06T01:12:36;7.45;;;4.62;;
83282;SDS011;73190;50.780;5.658;2024-03-06T01:15:05;5.00;;;3.58;;
83282;SDS011;73190;50.780;5.658;2024-03-06T01:17:34;6.50;;;4.10;;
83282;SDS011;73190;50.780;5.658;2024-03-06T01:20:02;5.87;;;3.80;;
83282;SDS011;73190;50.780;5.658;2024-03-06T01:22:31;8.10;;;4.50;;
83282;SDS011;73190;50.780;5.658;2024-03-06T01:25:00;6.25;;;4.45;;
83282;SDS011;73190;50.780;5.658;2024-03-06T01:27:27;9.45;;;4.42;;
83282;SDS011;73190;50.780;5.658;2024-03-06T01:29:55;9.75;;;5.12;;
83282;SDS011;73190;50.780;5.658;2024-03-06T01:32:23;8.90;;;4.90;;
83282;SDS011;73190;50.780;5.658;2024-03-06T01:34:50;6.30;;;4.85;;
83282;SDS011;73190;50.780;5.658;2024-03-06T01:37:18;6.78;;;4.35;;
83282;SDS011;73190;50.780;5.658;2024-03-06T01:39:46;8.75;;;4.80;;
83282;SDS011;73190;50.780;5.658;2024-03-06T01:42:16;8.15;;;4.60;;
83282;SDS011;73190;50.780;5.658;2024-03-06T01:47:10;7.85;;;3.50;;
83282;SDS011;73190;50.780;5.658;2024-03-06T01:49:38;7.70;;;3.72;;
83282;SDS011;73190;50.780;5.658;2024-03-06T01:52:07;8.40;;;3.75;;
83282;SDS011;73190;50.780;5.658;2024-03-06T01:54:40;5.17;;;3.20;;
83282;SDS011;73190;50.780;5.658;2024-03-06T01:57:08;9.20;;;3.08;;
83282;SDS011;73190;50.780;5.658;2024-03-06T01:59:40;5.62;;;3.40;;
83282;SDS011;73190;50.780;5.658;2024-03-06T02:02:09;5.80;;;3.20;;
83282;SDS011;73190;50.780;5.658;2024-03-06T02:04:39;6.40;;;2.65;;
83282;SDS011;73190;50.780;5.658;2024-03-06T02:07:10;5.92;;;3.20;;
83282;SDS011;73190;50.780;5.658;2024-03-06T02:09:38;7.47;;;2.98;;
83282;SDS011;73190;50.780;5.658;2024-03-06T02:12:06;6.58;;;3.15;;
83282;SDS011;73190;50.780;5.658;2024-03-06T02:14:35;5.72;;;3.22;;
83282;SDS011;73190;50.780;5.658;2024-03-06T02:17:03;5.80;;;2.90;;
83282;SDS011;73190;50.780;5.658;2024-03-06T02:19:40;7.15;;;2.95;;
83282;SDS011;73190;50.780;5.658;2024-03-06T02:22:09;6.50;;;3.22;;
83282;SDS011;73190;50.780;5.658;2024-03-06T02:24:38;6.28;;;2.65;;
83282;SDS011;73190;50.780;5.658;2024-03-06T02:27:07;5.92;;;2.87;;
83282;SDS011;73190;50.780;5.658;2024-03-06T02:29:35;5.22;;;2.75;;
83282;SDS011;73190;50.780;5.658;2024-03-06T02:32:04;5.30;;;2.35;;
83282;SDS011;73190;50.780;5.658;2024-03-06T02:34:31;7.92;;;2.60;;
83282;SDS011;73190;50.780;5.658;2024-03-06T02:36:59;5.72;;;3.00;;
83282;SDS011;73190;50.780;5.658;2024-03-06T02:39:26;7.50;;;3.37;;
83282;SDS011;73190;50.780;5.658;2024-03-06T02:41:54;9.10;;;4.20;;
83282;SDS011;73190;50.780;5.658;2024-03-06T02:44:21;6.65;;;3.55;;
83282;SDS011;73190;50.780;5.658;2024-03-06T02:46:50;7.37;;;3.95;;
83282;SDS011;73190;50.780;5.658;2024-03-06T02:49:17;9.90;;;4.25;;
83282;SDS011;73190;50.780;5.658;2024-03-06T02:51:45;5.95;;;3.90;;
83282;SDS011;73190;50.780;5.658;2024-03-06T02:54:13;7.92;;;4.30;;
83282;SDS011;73190;50.780;5.658;2024-03-06T02:56:40;7.17;;;3.98;;
83282;SDS011;73190;50.780;5.658;2024-03-06T02:59:08;7.60;;;3.75;;
83282;SDS011;73190;50.780;5.658;2024-03-06T03:01:35;5.65;;;3.55;;
83282;SDS011;73190;50.780;5.658;2024-03-06T03:04:04;5.72;;;3.47;;
83282;SDS011;73190;50.780;5.658;2024-03-06T03:06:33;6.85;;;4.03;;
83282;SDS011;73190;50.780;5.658;2024-03-06T03:09:00;8.13;;;4.25;;
83282;SDS011;73190;50.780;5.658;2024-03-06T03:11:30;7.05;;;3.55;;
83282;SDS011;73190;50.780;5.658;2024-03-06T03:14:01;7.47;;;3.70;;
83282;SDS011;73190;50.780;5.658;2024-03-06T03:16:29;7.00;;;3.62;;
83282;SDS011;73190;50.780;5.658;2024-03-06T03:18:58;5.78;;;3.52;;
83282;SDS011;73190;50.780;5.658;2024-03-06T03:21:25;5.17;;;3.33;;
83282;SDS011;73190;50.780;5.658;2024-03-06T03:23:53;7.72;;;3.67;;
83282;SDS011;73190;50.780;5.658;2024-03-06T03:26:20;5.65;;;3.37;;
83282;SDS011;73190;50.780;5.658;2024-03-06T03:28:48;5.50;;;3.42;;
83282;SDS011;73190;50.780;5.658;2024-03-06T03:31:15;5.37;;;2.92;;
83282;SDS011;73190;50.780;5.658;2024-03-06T03:33:43;7.97;;;3.20;;
83282;SDS011;73190;50.780;5.658;2024-03-06T03:36:10;8.08;;;3.30;;
83282;SDS011;73190;50.780;5.658;2024-03-06T03:38:38;7.47;;;3.22;;
83282;SDS011;73190;50.780;5.658;2024-03-06T03:41:09;6.80;;;3.27;;
83282;SDS011;73190;50.780;5.658;2024-03-06T03:43:40;8.83;;;3.30;;
83282;SDS011;73190;50.780;5.658;2024-03-06T03:46:07;4.85;;;2.98;;
83282;SDS011;73190;50.780;5.658;2024-03-06T03:48:35;6.80;;;3.45;;
83282;SDS011;73190;50.780;5.658;2024-03-06T03:51:03;7.03;;;3.45;;
83282;SDS011;73190;50.780;5.658;2024-03-06T03:53:33;6.00;;;3.33;;
83282;SDS011;73190;50.780;5.658;2024-03-06T03:56:00;6.60;;;3.42;;
83282;SDS011;73190;50.780;5.658;2024-03-06T03:58:29;4.72;;;3.08;;
83282;SDS011;73190;50.780;5.658;2024-03-06T04:00:56;4.10;;;2.90;;
83282;SDS011;73190;50.780;5.658;2024-03-06T04:03:24;5.80;;;3.20;;
83282;SDS011;73190;50.780;5.658;2024-03-06T04:05:52;5.60;;;3.50;;
83282;SDS011;73190;50.780;5.658;2024-03-06T04:08:19;6.20;;;3.25;;
83282;SDS011;73190;50.780;5.658;2024-03-06T04:10:47;5.37;;;3.10;;
83282;SDS011;73190;50.780;5.658;2024-03-06T04:13:15;6.33;;;3.35;;
83282;SDS011;73190;50.780;5.658;2024-03-06T04:15:44;8.10;;;3.02;;
83282;SDS011;73190;50.780;5.658;2024-03-06T04:18:12;8.90;;;3.05;;
83282;SDS011;73190;50.780;5.658;2024-03-06T04:20:39;8.05;;;3.85;;
83282;SDS011;73190;50.780;5.658;2024-03-06T04:23:08;6.40;;;3.15;;
83282;SDS011;73190;50.780;5.658;2024-03-06T04:25:35;4.80;;;3.35;;
83282;SDS011;73190;50.780;5.658;2024-03-06T04:28:05;5.43;;;2.73;;
83282;SDS011;73190;50.780;5.658;2024-03-06T04:30:36;5.58;;;3.10;;
83282;SDS011;73190;50.780;5.658;2024-03-06T04:33:03;6.05;;;3.10;;
83282;SDS011;73190;50.780;5.658;2024-03-06T04:35:31;5.67;;;3.02;;
83282;SDS011;73190;50.780;5.658;2024-03-06T04:37:58;6.45;;;3.77;;
83282;SDS011;73190;50.780;5.658;2024-03-06T04:40:29;5.47;;;3.12;;
83282;SDS011;73190;50.780;5.658;2024-03-06T04:42:57;8.75;;;3.27;;
83282;SDS011;73190;50.780;5.658;2024-03-06T04:45:24;6.65;;;3.58;;
83282;SDS011;73190;50.780;5.658;2024-03-06T04:47:52;6.50;;;3.10;;
83282;SDS011;73190;50.780;5.658;2024-03-06T04:50:19;3.42;;;2.72;;
83282;SDS011;73190;50.780;5.658;2024-03-06T04:52:47;6.10;;;3.25;;
83282;SDS011;73190;50.780;5.658;2024-03-06T04:55:14;5.80;;;2.50;;
83282;SDS011;73190;50.780;5.658;2024-03-06T04:57:44;5.93;;;3.07;;
83282;SDS011;73190;50.780;5.658;2024-03-06T05:00:13;4.60;;;2.85;;
83282;SDS011;73190;50.780;5.658;2024-03-06T05:02:41;5.67;;;3.10;;
83282;SDS011;73190;50.780;5.658;2024-03-06T05:05:09;10.18;;;3.20;;
83282;SDS011;73190;50.780;5.658;2024-03-06T05:07:37;7.08;;;3.47;;
83282;SDS011;73190;50.780;5.658;2024-03-06T05:10:04;6.37;;;3.20;;
83282;SDS011;73190;50.780;5.658;2024-03-06T05:12:34;7.50;;;3.10;;
83282;SDS011;73190;50.780;5.658;2024-03-06T05:15:02;7.78;;;2.95;;
83282;SDS011;73190;50.780;5.658;2024-03-06T05:17:30;7.95;;;3.10;;
83282;SDS011;73190;50.780;5.658;2024-03-06T05:19:57;4.62;;;3.10;;
83282;SDS011;73190;50.780;5.658;2024-03-06T05:22:25;5.47;;;3.17;;
83282;SDS011;73190;50.780;5.658;2024-03-06T05:24:52;5.50;;;2.85;;
83282;SDS011;73190;50.780;5.658;2024-03-06T05:27:21;5.03;;;3.17;;
83282;SDS011;73190;50.780;5.658;2024-03-06T05:29:48;6.22;;;2.72;;
83282;SDS011;73190;50.780;5.658;2024-03-06T05:32:16;6.85;;;3.52;;
83282;SDS011;73190;50.780;5.658;2024-03-06T05:34:45;5.95;;;3.40;;
83282;SDS011;73190;50.780;5.658;2024-03-06T05:37:12;5.40;;;3.30;;
83282;SDS011;73190;50.780;5.658;2024-03-06T05:39:40;7.92;;;3.45;;
83282;SDS011;73190;50.780;5.658;2024-03-06T05:42:08;4.17;;;2.95;;
83282;SDS011;73190;50.780;5.658;2024-03-06T05:44:36;5.08;;;3.10;;
83282;SDS011;73190;50.780;5.658;2024-03-06T05:47:03;5.33;;;3.00;;
83282;SDS011;73190;50.780;5.658;2024-03-06T05:49:32;6.87;;;3.23;;
83282;SDS011;73190;50.780;5.658;2024-03-06T05:52:02;4.50;;;2.90;;
83282;SDS011;73190;50.780;5.658;2024-03-06T05:54:30;5.87;;;3.17;;
83282;SDS011;73190;50.780;5.658;2024-03-06T05:56:59;4.55;;;3.17;;
83282;SDS011;73190;50.780;5.658;2024-03-06T05:59:26;8.25;;;4.03;;
83282;SDS011;73190;50.780;5.658;2024-03-06T06:01:54;6.72;;;4.42;;
83282;SDS011;73190;50.780;5.658;2024-03-06T06:04:22;5.95;;;3.40;;
83282;SDS011;73190;50.780;5.658;2024-03-06T06:06:49;8.18;;;3.47;;
83282;SDS011;73190;50.780;5.658;2024-03-06T06:09:17;5.37;;;3.40;;
83282;SDS011;73190;50.780;5.658;2024-03-06T06:11:45;5.00;;;2.90;;
83282;SDS011;73190;50.780;5.658;2024-03-06T06:14:13;12.15;;;6.30;;
83282;SDS011;73190;50.780;5.658;2024-03-06T06:16:41;12.85;;;5.30;;
83282;SDS011;73190;50.780;5.658;2024-03-06T06:19:09;11.43;;;5.92;;
83282;SDS011;73190;50.780;5.658;2024-03-06T06:21:36;16.95;;;9.25;;
83282;SDS011;73190;50.780;5.658;2024-03-06T06:24:04;17.65;;;11.43;;
83282;SDS011;73190;50.780;5.658;2024-03-06T06:26:32;15.18;;;8.65;;
83282;SDS011;73190;50.780;5.658;2024-03-06T06:29:00;10.55;;;6.78;;
83282;SDS011;73190;50.780;5.658;2024-03-06T06:31:28;9.03;;;5.00;;
83282;SDS011;73190;50.780;5.658;2024-03-06T06:33:55;8.20;;;5.20;;
83282;SDS011;73190;50.780;5.658;2024-03-06T06:36:23;9.90;;;4.65;;
83282;SDS011;73190;50.780;5.658;2024-03-06T06:38:50;11.28;;;5.78;;
83282;SDS011;73190;50.780;5.658;2024-03-06T06:41:18;14.20;;;7.30;;
83282;SDS011;73190;50.780;5.658;2024-03-06T06:43:45;16.50;;;8.50;;
83282;SDS011;73190;50.780;5.658;2024-03-06T06:46:13;15.98;;;8.53;;
83282;SDS011;73190;50.780;5.658;2024-03-06T06:48:42;14.13;;;7.47;;
83282;SDS011;73190;50.780;5.658;2024-03-06T06:51:09;9.35;;;4.95;;
83282;SDS011;73190;50.780;5.658;2024-03-06T06:53:39;9.60;;;4.42;;
83282;SDS011;73190;50.780;5.658;2024-03-06T06:56:09;7.80;;;4.85;;
83282;SDS011;73190;50.780;5.658;2024-03-06T06:58:37;12.93;;;4.95;;
83282;SDS011;73190;50.780;5.658;2024-03-06T07:01:06;10.30;;;5.50;;
83282;SDS011;73190;50.780;5.658;2024-03-06T07:03:34;8.98;;;5.70;;
83282;SDS011;73190;50.780;5.658;2024-03-06T07:06:01;10.70;;;5.72;;
83282;SDS011;73190;50.780;5.658;2024-03-06T07:08:29;12.73;;;6.55;;
83282;SDS011;73190;50.780;5.658;2024-03-06T07:10:56;8.38;;;5.92;;
83282;SDS011;73190;50.780;5.658;2024-03-06T07:13:24;13.15;;;5.65;;
83282;SDS011;73190;50.780;5.658;2024-03-06T07:15:51;10.43;;;5.65;;
83282;SDS011;73190;50.780;5.658;2024-03-06T07:18:19;15.75;;;4.83;;
83282;SDS011;73190;50.780;5.658;2024-03-06T07:20:46;9.93;;;4.60;;
83282;SDS011;73190;50.780;5.658;2024-03-06T07:23:14;11.70;;;5.03;;
83282;SDS011;73190;50.780;5.658;2024-03-06T07:25:41;17.73;;;6.28;;
83282;SDS011;73190;50.780;5.658;2024-03-06T07:28:09;19.37;;;7.58;;
83282;SDS011;73190;50.780;5.658;2024-03-06T07:30:36;14.47;;;6.35;;
83282;SDS011;73190;50.780;5.658;2024-03-06T07:33:04;12.78;;;6.10;;
83282;SDS011;73190;50.780;5.658;2024-03-06T07:35:33;11.68;;;6.05;;
83282;SDS011;73190;50.780;5.658;2024-03-06T07:38:02;10.65;;;5.35;;
83282;SDS011;73190;50.780;5.658;2024-03-06T07:40:31;12.63;;;5.22;;
83282;SDS011;73190;50.780;5.658;2024-03-06T07:42:58;12.98;;;5.40;;
83282;SDS011;73190;50.780;5.658;2024-03-06T07:45:26;9.95;;;5.35;;
83282;SDS011;73190;50.780;5.658;2024-03-06T07:47:53;11.10;;;4.67;;
83282;SDS011;73190;50.780;5.658;2024-03-06T07:50:21;11.35;;;5.12;;
83282;SDS011;73190;50.780;5.658;2024-03-06T07:52:48;10.68;;;4.55;;
83282;SDS011;73190;50.780;5.658;2024-03-06T07:55:16;10.18;;;4.53;;
83282;SDS011;73190;50.780;5.658;2024-03-06T07:57:45;9.10;;;4.65;;
83282;SDS011;73190;50.780;5.658;2024-03-06T08:00:13;7.55;;;4.53;;
83282;SDS011;73190;50.780;5.658;2024-03-06T08:02:41;7.72;;;5.12;;
83282;SDS011;73190;50.780;5.658;2024-03-06T08:05:13;7.75;;;4.08;;
83282;SDS011;73190;50.780;5.658;2024-03-06T08:07:40;8.08;;;4.28;;
83282;SDS011;73190;50.780;5.658;2024-03-06T08:10:09;6.67;;;4.10;;
83282;SDS011;73190;50.780;5.658;2024-03-06T08:12:40;10.75;;;5.50;;
83282;SDS011;73190;50.780;5.658;2024-03-06T08:15:09;13.70;;;6.28;;
83282;SDS011;73190;50.780;5.658;2024-03-06T08:17:39;6.75;;;3.92;;
83282;SDS011;73190;50.780;5.658;2024-03-06T08:20:12;8.13;;;4.15;;
83282;SDS011;73190;50.780;5.658;2024-03-06T08:22:38;10.32;;;4.83;;
83282;SDS011;73190;50.780;5.658;2024-03-06T08:27:35;8.23;;;4.20;;
83282;SDS011;73190;50.780;5.658;2024-03-06T08:30:04;9.00;;;3.80;;
83282;SDS011;73190;50.780;5.658;2024-03-06T08:35:05;10.58;;;4.65;;
83282;SDS011;73190;50.780;5.658;2024-03-06T08:37:35;10.08;;;4.83;;
83282;SDS011;73190;50.780;5.658;2024-03-06T08:40:05;12.25;;;4.78;;
83282;SDS011;73190;50.780;5.658;2024-03-06T08:42:38;11.20;;;4.92;;
83282;SDS011;73190;50.780;5.658;2024-03-06T08:45:05;10.53;;;4.90;;
83282;SDS011;73190;50.780;5.658;2024-03-06T08:47:34;10.50;;;4.50;;
83282;SDS011;73190;50.780;5.658;2024-03-06T08:50:02;8.55;;;4.40;;
83282;SDS011;73190;50.780;5.658;2024-03-06T08:52:31;7.53;;;5.00;;
83282;SDS011;73190;50.780;5.658;2024-03-06T08:55:00;7.55;;;4.35;;
83282;SDS011;73190;50.780;5.658;2024-03-06T08:57:30;8.93;;;4.62;;
83282;SDS011;73190;50.780;5.658;2024-03-06T08:59:57;10.58;;;4.62;;
83282;SDS011;73190;50.780;5.658;2024-03-06T09:02:25;7.50;;;4.65;;
83282;SDS011;73190;50.780;5.658;2024-03-06T09:04:53;9.15;;;5.08;;
83282;SDS011;73190;50.780;5.658;2024-03-06T09:07:21;9.40;;;4.60;;
83282;SDS011;73190;50.780;5.658;2024-03-06T09:09:50;8.13;;;4.50;;
83282;SDS011;73190;50.780;5.658;2024-03-06T09:12:18;10.85;;;4.65;;
83282;SDS011;73190;50.780;5.658;2024-03-06T09:14:45;7.85;;;4.05;;
83282;SDS011;73190;50.780;5.658;2024-03-06T09:17:13;8.88;;;4.40;;
83282;SDS011;73190;50.780;5.658;2024-03-06T09:19:41;9.75;;;4.58;;
83282;SDS011;73190;50.780;5.658;2024-03-06T09:22:09;8.55;;;3.87;;
83282;SDS011;73190;50.780;5.658;2024-03-06T09:24:36;7.58;;;4.10;;
83282;SDS011;73190;50.780;5.658;2024-03-06T09:27:04;6.85;;;4.20;;
83282;SDS011;73190;50.780;5.658;2024-03-06T09:29:33;7.20;;;3.75;;
83282;SDS011;73190;50.780;5.658;2024-03-06T09:32:00;9.88;;;4.08;;
83282;SDS011;73190;50.780;5.658;2024-03-06T09:34:28;9.48;;;3.72;;
83282;SDS011;73190;50.780;5.658;2024-03-06T09:36:55;9.15;;;3.50;;
83282;SDS011;73190;50.780;5.658;2024-03-06T09:39:23;7.80;;;4.17;;
83282;SDS011;73190;50.780;5.658;2024-03-06T09:41:51;8.03;;;4.28;;
83282;SDS011;73190;50.780;5.658;2024-03-06T09:44:21;11.40;;;4.42;;
83282;SDS011;73190;50.780;5.658;2024-03-06T09:46:49;6.90;;;4.20;;
83282;SDS011;73190;50.780;5.658;2024-03-06T09:49:18;5.80;;;3.85;;
83282;SDS011;73190;50.780;5.658;2024-03-06T09:51:46;6.90;;;3.87;;
83282;SDS011;73190;50.780;5.658;2024-03-06T09:54:19;11.78;;;4.25;;
83282;SDS011;73190;50.780;5.658;2024-03-06T09:56:49;8.68;;;3.77;;
83282;SDS011;73190;50.780;5.658;2024-03-06T09:59:17;8.40;;;4.22;;
83282;SDS011;73190;50.780;5.658;2024-03-06T10:01:53;9.23;;;4.97;;
83282;SDS011;73190;50.780;5.658;2024-03-06T10:04:19;30.70;;;11.12;;
83282;SDS011;73190;50.780;5.658;2024-03-06T10:06:47;12.95;;;5.37;;
83282;SDS011;73190;50.780;5.658;2024-03-06T10:09:18;10.18;;;4.55;;
83282;SDS011;73190;50.780;5.658;2024-03-06T10:11:46;17.48;;;9.10;;
83282;SDS011;73190;50.780;5.658;2024-03-06T10:14:14;9.05;;;4.10;;
83282;SDS011;73190;50.780;5.658;2024-03-06T10:16:54;7.12;;;3.60;;
83282;SDS011;73190;50.780;5.658;2024-03-06T10:19:23;7.12;;;3.75;;
83282;SDS011;73190;50.780;5.658;2024-03-06T10:21:55;10.38;;;3.85;;
83282;SDS011;73190;50.780;5.658;2024-03-06T10:24:24;12.68;;;4.08;;
83282;SDS011;73190;50.780;5.658;2024-03-06T10:26:57;4.55;;;3.12;;
83282;SDS011;73190;50.780;5.658;2024-03-06T10:29:27;12.73;;;3.50;;
83282;SDS011;73190;50.780;5.658;2024-03-06T10:31:56;12.55;;;3.70;;
83282;SDS011;73190;50.780;5.658;2024-03-06T10:34:25;14.20;;;3.43;;
83282;SDS011;73190;50.780;5.658;2024-03-06T10:36:56;16.77;;;4.37;;
83282;SDS011;73190;50.780;5.658;2024-03-06T10:39:25;10.23;;;3.77;;
83282;SDS011;73190;50.780;5.658;2024-03-06T10:41:54;10.20;;;3.80;;
83282;SDS011;73190;50.780;5.658;2024-03-06T10:44:23;12.10;;;4.10;;
83282;SDS011;73190;50.780;5.658;2024-03-06T10:46:58;9.58;;;3.40;;
83282;SDS011;73190;50.780;5.658;2024-03-06T10:49:27;8.75;;;2.92;;
83282;SDS011;73190;50.780;5.658;2024-03-06T10:51:57;8.35;;;3.47;;
83282;SDS011;73190;50.780;5.658;2024-03-06T10:54:34;11.95;;;4.03;;
83282;SDS011;73190;50.780;5.658;2024-03-06T10:57:04;5.87;;;2.85;;
83282;SDS011;73190;50.780;5.658;2024-03-06T10:59:32;7.25;;;2.77;;
83282;SDS011;73190;50.780;5.658;2024-03-06T11:02:01;8.27;;;2.67;;
83282;SDS011;73190;50.780;5.658;2024-03-06T11:04:29;5.45;;;2.00;;
83282;SDS011;73190;50.780;5.658;2024-03-06T11:07:01;9.55;;;2.95;;
83282;SDS011;73190;50.780;5.658;2024-03-06T11:12:01;6.70;;;3.20;;
83282;SDS011;73190;50.780;5.658;2024-03-06T11:14:30;9.55;;;2.58;;
83282;SDS011;73190;50.780;5.658;2024-03-06T11:17:11;5.80;;;2.70;;
83282;SDS011;73190;50.780;5.658;2024-03-06T11:28:17;5.75;;;2.47;;
83282;SDS011;73190;50.780;5.658;2024-03-06T11:31:01;8.83;;;1.80;;
83282;SDS011;73190;50.780;5.658;2024-03-06T11:33:40;5.70;;;2.15;;
83282;SDS011;73190;50.780;5.658;2024-03-06T11:36:15;5.80;;;2.50;;
83282;SDS011;73190;50.780;5.658;2024-03-06T11:38:53;5.00;;;2.12;;
83282;SDS011;73190;50.780;5.658;2024-03-06T11:41:27;6.20;;;1.90;;
83282;SDS011;73190;50.780;5.658;2024-03-06T11:44:00;4.05;;;2.08;;
83282;SDS011;73190;50.780;5.658;2024-03-06T11:46:47;6.70;;;2.40;;
83282;SDS011;73190;50.780;5.658;2024-03-06T11:49:26;6.30;;;2.50;;
83282;SDS011;73190;50.780;5.658;2024-03-06T11:51:56;4.97;;;2.60;;
83282;SDS011;73190;50.780;5.658;2024-03-06T11:54:24;7.47;;;3.05;;
83282;SDS011;73190;50.780;5.658;2024-03-06T11:56:54;6.65;;;2.87;;
83282;SDS011;73190;50.780;5.658;2024-03-06T11:59:23;7.97;;;3.00;;
83282;SDS011;73190;50.780;5.658;2024-03-06T12:02:00;7.28;;;2.65;;
83282;SDS011;73190;50.780;5.658;2024-03-06T12:04:31;7.47;;;2.72;;
83282;SDS011;73190;50.780;5.658;2024-03-06T12:07:01;5.33;;;2.83;;
83282;SDS011;73190;50.780;5.658;2024-03-06T12:09:31;6.17;;;2.65;;
83282;SDS011;73190;50.780;5.658;2024-03-06T12:12:00;8.48;;;2.75;;
83282;SDS011;73190;50.780;5.658;2024-03-06T12:14:28;4.90;;;2.50;;
83282;SDS011;73190;50.780;5.658;2024-03-06T12:16:57;4.83;;;2.40;;
83282;SDS011;73190;50.780;5.658;2024-03-06T12:19:26;7.23;;;2.40;;
83282;SDS011;73190;50.780;5.658;2024-03-06T12:21:54;5.08;;;2.10;;
83282;SDS011;73190;50.780;5.658;2024-03-06T12:24:22;7.42;;;2.50;;
83282;SDS011;73190;50.780;5.658;2024-03-06T12:26:59;5.92;;;2.60;;
83282;SDS011;73190;50.780;5.658;2024-03-06T12:29:30;6.50;;;2.70;;
83282;SDS011;73190;50.780;5.658;2024-03-06T12:31:58;6.20;;;2.62;;
83282;SDS011;73190;50.780;5.658;2024-03-06T12:34:27;5.37;;;2.58;;
83282;SDS011;73190;50.780;5.658;2024-03-06T12:36:56;5.85;;;2.70;;
83282;SDS011;73190;50.780;5.658;2024-03-06T12:39:23;5.75;;;3.30;;
83282;SDS011;73190;50.780;5.658;2024-03-06T12:41:51;7.62;;;2.90;;
83282;SDS011;73190;50.780;5.658;2024-03-06T12:44:19;64.25;;;38.25;;
83282;SDS011;73190;50.780;5.658;2024-03-06T12:46:47;19.50;;;10.13;;
83282;SDS011;73190;50.780;5.658;2024-03-06T12:49:15;9.65;;;3.52;;
83282;SDS011;73190;50.780;5.658;2024-03-06T12:51:44;5.90;;;2.90;;
83282;SDS011;73190;50.780;5.658;2024-03-06T12:54:11;9.15;;;2.95;;
83282;SDS011;73190;50.780;5.658;2024-03-06T12:56:39;6.22;;;2.77;;
83282;SDS011;73190;50.780;5.658;2024-03-06T12:59:07;6.83;;;2.20;;
83282;SDS011;73190;50.780;5.658;2024-03-06T13:01:35;6.65;;;3.12;;
83282;SDS011;73190;50.780;5.658;2024-03-06T13:04:03;4.80;;;2.35;;
83282;SDS011;73190;50.780;5.658;2024-03-06T13:06:31;6.53;;;3.00;;
83282;SDS011;73190;50.780;5.658;2024-03-06T13:08:59;3.60;;;2.10;;
83282;SDS011;73190;50.780;5.658;2024-03-06T13:11:26;7.08;;;3.25;;
83282;SDS011;73190;50.780;5.658;2024-03-06T13:13:54;6.90;;;2.52;;
83282;SDS011;73190;50.780;5.658;2024-03-06T13:16:21;11.28;;;4.03;;
83282;SDS011;73190;50.780;5.658;2024-03-06T13:18:49;4.78;;;1.82;;
83282;SDS011;73190;50.780;5.658;2024-03-06T13:21:18;4.75;;;1.60;;
83282;SDS011;73190;50.780;5.658;2024-03-06T13:23:46;6.20;;;1.70;;
83282;SDS011;73190;50.780;5.658;2024-03-06T13:26:13;6.90;;;2.83;;
83282;SDS011;73190;50.780;5.658;2024-03-06T13:28:41;5.70;;;1.60;;
83282;SDS011;73190;50.780;5.658;2024-03-06T13:31:09;6.10;;;1.67;;
83282;SDS011;73190;50.780;5.658;2024-03-06T13:33:36;6.72;;;1.60;;
83282;SDS011;73190;50.780;5.658;2024-03-06T13:36:04;5.75;;;1.80;;
83282;SDS011;73190;50.780;5.658;2024-03-06T13:38:32;6.17;;;2.12;;
83282;SDS011;73190;50.780;5.658;2024-03-06T13:41:00;3.75;;;1.20;;
83282;SDS011;73190;50.780;5.658;2024-03-06T13:43:30;6.53;;;1.72;;
83282;SDS011;73190;50.780;5.658;2024-03-06T13:45:58;5.37;;;1.80;;
83282;SDS011;73190;50.780;5.658;2024-03-06T13:48:26;4.97;;;1.50;;
83282;SDS011;73190;50.780;5.658;2024-03-06T13:50:54;7.70;;;3.85;;
83282;SDS011;73190;50.780;5.658;2024-03-06T13:53:21;5.83;;;2.40;;
83282;SDS011;73190;50.780;5.658;2024-03-06T13:55:49;4.67;;;1.65;;
83282;SDS011;73190;50.780;5.658;2024-03-06T13:58:16;4.90;;;2.62;;
83282;SDS011;73190;50.780;5.658;2024-03-06T14:00:45;2.83;;;1.77;;
83282;SDS011;73190;50.780;5.658;2024-03-06T14:03:13;4.53;;;1.70;;
83282;SDS011;73190;50.780;5.658;2024-03-06T14:05:40;4.92;;;1.40;;
83282;SDS011;73190;50.780;5.658;2024-03-06T14:08:08;6.97;;;1.65;;
83282;SDS011;73190;50.780;5.658;2024-03-06T14:10:40;3.72;;;1.90;;
83282;SDS011;73190;50.780;5.658;2024-03-06T14:13:08;4.10;;;1.65;;
83282;SDS011;73190;50.780;5.658;2024-03-06T14:15:35;4.33;;;1.60;;
83282;SDS011;73190;50.780;5.658;2024-03-06T14:18:03;7.72;;;2.50;;
83282;SDS011;73190;50.780;5.658;2024-03-06T14:20:32;4.80;;;2.20;;
83282;SDS011;73190;50.780;5.658;2024-03-06T14:22:59;8.73;;;2.02;;
83282;SDS011;73190;50.780;5.658;2024-03-06T14:25:27;5.67;;;3.70;;
83282;SDS011;73190;50.780;5.658;2024-03-06T14:27:55;4.83;;;2.12;;
83282;SDS011;73190;50.780;5.658;2024-03-06T14:30:23;4.37;;;1.98;;
83282;SDS011;73190;50.780;5.658;2024-03-06T14:32:50;5.47;;;2.72;;
83282;SDS011;73190;50.780;5.658;2024-03-06T14:35:18;3.67;;;1.50;;
83282;SDS011;73190;50.780;5.658;2024-03-06T14:37:47;3.22;;;1.40;;
83282;SDS011;73190;50.780;5.658;2024-03-06T14:40:15;3.70;;;1.25;;
83282;SDS011;73190;50.780;5.658;2024-03-06T14:42:43;4.30;;;1.27;;
83282;SDS011;73190;50.780;5.658;2024-03-06T14:45:11;3.70;;;1.50;;
83282;SDS011;73190;50.780;5.658;2024-03-06T14:47:38;2.33;;;1.10;;
83282;SDS011;73190;50.780;5.658;2024-03-06T14:50:06;3.70;;;1.30;;
83282;SDS011;73190;50.780;5.658;2024-03-06T14:52:34;3.77;;;1.60;;
83282;SDS011;73190;50.780;5.658;2024-03-06T14:55:06;2.83;;;1.15;;
83282;SDS011;73190;50.780;5.658;2024-03-06T14:57:36;5.08;;;2.12;;
83282;SDS011;73190;50.780;5.658;2024-03-06T15:00:04;6.78;;;3.58;;
83282;SDS011;73190;50.780;5.658;2024-03-06T15:02:32;8.45;;;2.55;;
83282;SDS011;73190;50.780;5.658;2024-03-06T15:05:00;3.50;;;1.37;;
83282;SDS011;73190;50.780;5.658;2024-03-06T15:07:28;3.98;;;1.42;;
83282;SDS011;73190;50.780;5.658;2024-03-06T15:09:57;3.80;;;1.37;;